Parawa Second Valley, South Australia

8:50 PM ACST on September 23, 2014 (GMT +0930)
Second Valley | Change Station
CLOSE
Current Station
Personal Weather Station
Location: SECOND VALLEY, SOUTH AUSTRALIA
Elevation: 300 ft
Nearby Weather Stations

Elev 300 ft 35.53 °S, 138.23 °E | Updated 4 minutes ago

Rain
Rain
60.3 °F
Feels Like 60.3 °F
N
5.4
Wind Variable Wind from SE
Gusts 8.3 mph

Today
High -- | Low -- °F
--% Chance of Precip.
Yesterday
High -- | Low -- °F
Precip. -- in
6:05 AM 6:13 PM
Waning Crescent, 1% visible
Pressure 30.01 in
Visibility -9999.0 miles
Clouds
Dew Point 59 °F
Humidity 97%
Rainfall 0.01 in
Snow Depth Not available.
UV Not available.
Pollen Not available.
Air Quality Not available.
Flu Activity Not available.
METAR YPAD 231100Z 07005KT CAVOK 18/13 Q1016 RMK 7AC110 INTER 1130/1400 5000 SHRA BKN040

More Conditions Fewer Conditions

Pressure 30.01 in
Visibility -9999.0 miles
Clouds
Dew Point 59 °F
Humidity 97%
Rainfall 0.01 in
Snow Depth Not available.
UV Not available.
Pollen Not available.
Air Quality Not available.
Flu Activity Not available.
METAR YPAD 231100Z 07005KT CAVOK 18/13 Q1016 RMK 7AC110 INTER 1130/1400 5000 SHRA BKN040

More Conditions Fewer Conditions

10-Day Weather Forecast

Almanac

Astronomy

Sep. 23, 2014 Rise Set
Actual Time 6:05 AM ACST 6:13 PM ACST
Civil Twilight 5:40 AM ACST 6:39 PM ACST
Nautical Twilight 5:10 AM ACST 7:08 PM ACST
Astronomical Twilight 4:40 AM ACST 7:39 PM ACST
Moon 5:16 AM ACST 5:22 PM ACST
Length of Visible Light 12h 58m
Length of Day
12h 08m
Tomorrow will be 2m 14s longer.
Waning Crescent, 1% of the Moon is Illuminated
Today
Waning Crescent
Sep 24
New
Oct 1
First Quarter
Oct 8
Full
Oct 15
Last Quarter

Yesterday's Extremes

Country Highs Country Lows

Community

WunderPhotos

Upload Photos

1,755,645 photos uploaded!

Nearby

Snow Depth

Not available.

Earthquake Activity

City Distance Mag. Time & Date
No recent earthquake activity has been reported nearby.
Minimum magnitude displayed is 2.5.

Coastal Water Temperatures

Place Temperature
No Stations Reporting

Nearby Weather Stations